Vekso, Denmark
Current Conditions -  °F | °C
As of 10:50 PM on Wednesday 28 Jan 2015 (Local Time) from EKRK Reporting Station
Rain Showers Rain Showers  
Wind Chill: 27°   Ceiling: 1000
Heat Index: 37°   Visibility: 4mi
Dew Point: 36°   Wind: 18mph
Humidity: 93%   Direction: 220°SW
Pressure: 28.91"   Gusts: NA
Location:  55.75°N, 12.24°E
Report Text: EKRK 282150Z AUTO 22016KT 7000NDV -SHRA FEW007/// BKN010///OVC016/// 03/02 Q0979
Loading
Personal Weather Stations






























Interactive Weather Map New forecast layout! Learn more

10-Day Weather Forecast

Advertisements
Track Severe Weather on mobile